Syn Tabit — IBEK — position and weather

sailwx.info

Track history (hours):
 
Tides and Currents Weather Stations Pressure Air Temp Water Temp Dewpoint Dewpoint Depression Visibility Wind Speed Wind Dir Waves Ship Positions

Syn Tabit

Last reported at 2018-Jan-22 14:33 UTC. Time now 2018-Jan-23 08:23 UTC.
Position N 39°57' E 018°31'.

Length 95 m; draft 6.7 m.

Type: Ship (hazmat cat D). MMSI: 247325500.

Date/timePositionNaut miles runAvg speedWind from/ knotsBaromVisibWave heightAir tempDewpointWater temp
2018-Jan-22 14:33N 39°57' E 018°31'0 9.4
2018-Jan-22 14:31N 39°57' E 018°31'5 9.3
2018-Jan-22 13:58N 39°52' E 018°28'59 9.8
2018-Jan-22 07:56N 39°38' E 017°14'511.0
2018-Jan-22 07:29N 39°37' E 017°08'611.0
2018-Jan-22 06:56N 39°37' E 016°60'410.2
2018-Jan-22 06:30N 39°37' E 016°54'4 8.1
2018-Jan-22 05:58N 39°34' E 016°58'4 8.0
2018-Jan-22 05:27N 39°32' E 017°03'4 7.6
2018-Jan-22 05:00N 39°30' E 017°06'5 7.4
2018-Jan-22 04:17N 39°26' E 017°11'  
2018-Jan-19 22:11N 38°58' E 009°23'212.6
2018-Jan-19 21:59N 38°59' E 009°20'612.4
2018-Jan-19 21:30N 39°02' E 009°14'612.3
2018-Jan-19 20:59N 39°05' E 009°07'4 6.7
2018-Jan-19 20:26N 39°06' E 009°02'0 0.0
2018-Jan-19 20:00N 39°06' E 009°02'0 0.0
2018-Jan-19 19:26N 39°06' E 009°02'0 0.0
2018-Jan-19 19:00N 39°06' E 009°02'0 0.0
2018-Jan-19 18:25N 39°06' E 009°02'0 0.0
2018-Jan-19 17:55N 39°06' E 009°02'0 0.0
2018-Jan-19 17:26N 39°06' E 009°02'0 0.2
2018-Jan-19 17:00N 39°06' E 009°02'1 0.5
2018-Jan-19 15:15N 39°06' E 009°01'0 0.0
2018-Jan-19 14:45N 39°06' E 009°01'0 0.0
2018-Jan-19 14:09N 39°06' E 009°01'0 0.0
2018-Jan-19 13:39N 39°06' E 009°01'0 0.0
2018-Jan-19 13:15N 39°06' E 009°01'0 0.0
2018-Jan-19 12:51N 39°06' E 009°01'0 0.0
2018-Jan-19 12:21N 39°06' E 009°01'0 0.0
2018-Jan-19 07:21N 39°06' E 009°01'0 0.0
2018-Jan-19 06:57N 39°06' E 009°01'0 0.0
2018-Jan-19 06:27N 39°06' E 009°01'0 0.0
2018-Jan-19 05:15N 39°06' E 009°01'0 0.0
2018-Jan-19 04:46N 39°06' E 009°01'0 0.0
2018-Jan-19 04:28N 39°06' E 009°01'0 0.0
2018-Jan-19 02:28N 39°06' E 009°01'0 0.0
2018-Jan-19 01:52N 39°06' E 009°01'0 0.0
2018-Jan-19 01:28N 39°06' E 009°01'0 0.0
2018-Jan-19 00:58N 39°06' E 009°01'0 0.0
2018-Jan-19 00:28N 39°06' E 009°01'0 0.0
2018-Jan-18 23:52N 39°06' E 009°01'0 0.0
2018-Jan-18 23:25N 39°06' E 009°01'0 0.0
2018-Jan-18 22:43N 39°06' E 009°01'0 0.0
2018-Jan-18 22:22N 39°06' E 009°01'0 0.0
2018-Jan-18 21:52N 39°06' E 009°01'0 0.0
2018-Jan-18 21:10N 39°06' E 009°01'0 0.0
2018-Jan-18 20:58N 39°06' E 009°01'0 0.0
2018-Jan-18 20:28N 39°06' E 009°01'0 0.0
2018-Jan-18 19:58N 39°06' E 009°01'0 0.0
2018-Jan-18 19:28N 39°06' E 009°01'0 0.0
2018-Jan-18 18:58N 39°06' E 009°01'0 0.0
2018-Jan-18 18:16N 39°06' E 009°01'0 0.0
2018-Jan-18 17:43N 39°06' E 009°01'0 0.0
2018-Jan-18 17:28N 39°06' E 009°01'0 0.0
2018-Jan-18 16:58N 39°06' E 009°01'0 0.0
2018-Jan-18 16:25N 39°06' E 009°01'0 0.0
2018-Jan-18 15:49N 39°06' E 009°01'0 0.0
2018-Jan-18 15:22N 39°06' E 009°01'0 0.0
2018-Jan-18 14:58N 39°06' E 009°01'0 0.0
2018-Jan-18 14:16N 39°06' E 009°01'0 0.0
2018-Jan-18 13:55N 39°06' E 009°01'0 0.0
2018-Jan-18 13:25N 39°06' E 009°01'0 0.0
2018-Jan-18 12:52N 39°06' E 009°01'0 0.0
2018-Jan-18 12:22N 39°06' E 009°01'0 0.0
2018-Jan-18 11:49N 39°06' E 009°01'0 0.0
2018-Jan-18 11:28N 39°06' E 009°01'0 0.0
2018-Jan-18 10:55N 39°06' E 009°01'0 0.0
2018-Jan-18 08:37N 39°06' E 009°01'0 0.0
2018-Jan-18 08:26N 39°06' E 009°01'0 0.2
2018-Jan-18 07:59N 39°06' E 009°01'2 3.9
2018-Jan-18 07:30N 39°06' E 009°04'1 1.5
2018-Jan-18 06:59N 39°06' E 009°05'0 0.1
2018-Jan-18 06:26N 39°06' E 009°05'0 0.0
2018-Jan-18 05:53N 39°06' E 009°05'0 0.0
2018-Jan-18 05:26N 39°06' E 009°05'0 0.0
2018-Jan-18 04:59N 39°06' E 009°05'0 0.0
2018-Jan-18 04:29N 39°06' E 009°05'0 0.0
2018-Jan-18 03:59N 39°06' E 009°05'0 0.0
2018-Jan-18 03:23N 39°06' E 009°05'0 0.0
2018-Jan-18 02:56N 39°06' E 009°05'0 0.1
2018-Jan-18 02:29N 39°06' E 009°05'0 0.0
2018-Jan-18 01:53N 39°06' E 009°05'0 0.1
2018-Jan-18 01:26N 39°06' E 009°05'0 0.0
2018-Jan-18 00:56N 39°06' E 009°05'0 0.0
2018-Jan-17 23:59N 39°06' E 009°05'0 0.1
2018-Jan-17 23:53N 39°06' E 009°05'  
2018-Jan-12 14:59N 39°06' E 009°03'  
Track history (hours):
 
Tides and Currents Weather Stations Pressure Air Temp Water Temp Dewpoint Dewpoint Depression Visibility Wind Speed Wind Dir Waves Ship Positions

Syn Tabit

Last reported at 2018-Jan-22 14:33 UTC. Time now 2018-Jan-23 08:23 UTC.
Position N 39°57' E 018°31'.

Length 95 m; draft 6.7 m.

Type: Ship (hazmat cat D). MMSI: 247325500.

Date/timePositionNaut miles runAvg speedWind from/ knotsBaromVisibWave heightAir tempDewpointWater temp
2018-Jan-22 14:33N 39°57' E 018°31'0 9.4
2018-Jan-22 14:31N 39°57' E 018°31'5 9.3
2018-Jan-22 13:58N 39°52' E 018°28'59 9.8
2018-Jan-22 07:56N 39°38' E 017°14'511.0
2018-Jan-22 07:29N 39°37' E 017°08'611.0
2018-Jan-22 06:56N 39°37' E 016°60'410.2
2018-Jan-22 06:30N 39°37' E 016°54'4 8.1
2018-Jan-22 05:58N 39°34' E 016°58'4 8.0
2018-Jan-22 05:27N 39°32' E 017°03'4 7.6
2018-Jan-22 05:00N 39°30' E 017°06'5 7.4
2018-Jan-22 04:17N 39°26' E 017°11'  
2018-Jan-19 22:11N 38°58' E 009°23'212.6
2018-Jan-19 21:59N 38°59' E 009°20'612.4
2018-Jan-19 21:30N 39°02' E 009°14'612.3
2018-Jan-19 20:59N 39°05' E 009°07'4 6.7
2018-Jan-19 20:26N 39°06' E 009°02'0 0.0
2018-Jan-19 20:00N 39°06' E 009°02'0 0.0
2018-Jan-19 19:26N 39°06' E 009°02'0 0.0
2018-Jan-19 19:00N 39°06' E 009°02'0 0.0
2018-Jan-19 18:25N 39°06' E 009°02'0 0.0
2018-Jan-19 17:55N 39°06' E 009°02'0 0.0
2018-Jan-19 17:26N 39°06' E 009°02'0 0.2
2018-Jan-19 17:00N 39°06' E 009°02'1 0.5
2018-Jan-19 15:15N 39°06' E 009°01'0 0.0
2018-Jan-19 14:45N 39°06' E 009°01'0 0.0
2018-Jan-19 14:09N 39°06' E 009°01'0 0.0
2018-Jan-19 13:39N 39°06' E 009°01'0 0.0
2018-Jan-19 13:15N 39°06' E 009°01'0 0.0
2018-Jan-19 12:51N 39°06' E 009°01'0 0.0
2018-Jan-19 12:21N 39°06' E 009°01'0 0.0
2018-Jan-19 07:21N 39°06' E 009°01'0 0.0
2018-Jan-19 06:57N 39°06' E 009°01'0 0.0
2018-Jan-19 06:27N 39°06' E 009°01'0 0.0
2018-Jan-19 05:15N 39°06' E 009°01'0 0.0
2018-Jan-19 04:46N 39°06' E 009°01'0 0.0
2018-Jan-19 04:28N 39°06' E 009°01'0 0.0
2018-Jan-19 02:28N 39°06' E 009°01'0 0.0
2018-Jan-19 01:52N 39°06' E 009°01'0 0.0
2018-Jan-19 01:28N 39°06' E 009°01'0 0.0
2018-Jan-19 00:58N 39°06' E 009°01'0 0.0
2018-Jan-19 00:28N 39°06' E 009°01'0 0.0
2018-Jan-18 23:52N 39°06' E 009°01'0 0.0
2018-Jan-18 23:25N 39°06' E 009°01'0 0.0
2018-Jan-18 22:43N 39°06' E 009°01'0 0.0
2018-Jan-18 22:22N 39°06' E 009°01'0 0.0
2018-Jan-18 21:52N 39°06' E 009°01'0 0.0
2018-Jan-18 21:10N 39°06' E 009°01'0 0.0
2018-Jan-18 20:58N 39°06' E 009°01'0 0.0
2018-Jan-18 20:28N 39°06' E 009°01'0 0.0
2018-Jan-18 19:58N 39°06' E 009°01'0 0.0
2018-Jan-18 19:28N 39°06' E 009°01'0 0.0
2018-Jan-18 18:58N 39°06' E 009°01'0 0.0
2018-Jan-18 18:16N 39°06' E 009°01'0 0.0
2018-Jan-18 17:43N 39°06' E 009°01'0 0.0
2018-Jan-18 17:28N 39°06' E 009°01'0 0.0
2018-Jan-18 16:58N 39°06' E 009°01'0 0.0
2018-Jan-18 16:25N 39°06' E 009°01'0 0.0
2018-Jan-18 15:49N 39°06' E 009°01'0 0.0
2018-Jan-18 15:22N 39°06' E 009°01'0 0.0
2018-Jan-18 14:58N 39°06' E 009°01'0 0.0
2018-Jan-18 14:16N 39°06' E 009°01'0 0.0
2018-Jan-18 13:55N 39°06' E 009°01'0 0.0
2018-Jan-18 13:25N 39°06' E 009°01'0 0.0
2018-Jan-18 12:52N 39°06' E 009°01'0 0.0
2018-Jan-18 12:22N 39°06' E 009°01'0 0.0
2018-Jan-18 11:49N 39°06' E 009°01'0 0.0
2018-Jan-18 11:28N 39°06' E 009°01'0 0.0
2018-Jan-18 10:55N 39°06' E 009°01'0 0.0
2018-Jan-18 08:37N 39°06' E 009°01'0 0.0
2018-Jan-18 08:26N 39°06' E 009°01'0 0.2
2018-Jan-18 07:59N 39°06' E 009°01'2 3.9
2018-Jan-18 07:30N 39°06' E 009°04'1 1.5
2018-Jan-18 06:59N 39°06' E 009°05'0 0.1
2018-Jan-18 06:26N 39°06' E 009°05'0 0.0
2018-Jan-18 05:53N 39°06' E 009°05'0 0.0
2018-Jan-18 05:26N 39°06' E 009°05'0 0.0
2018-Jan-18 04:59N 39°06' E 009°05'0 0.0
2018-Jan-18 04:29N 39°06' E 009°05'0 0.0
2018-Jan-18 03:59N 39°06' E 009°05'0 0.0
2018-Jan-18 03:23N 39°06' E 009°05'0 0.0
2018-Jan-18 02:56N 39°06' E 009°05'0 0.1
2018-Jan-18 02:29N 39°06' E 009°05'0 0.0
2018-Jan-18 01:53N 39°06' E 009°05'0 0.1
2018-Jan-18 01:26N 39°06' E 009°05'0 0.0
2018-Jan-18 00:56N 39°06' E 009°05'0 0.0
2018-Jan-17 23:59N 39°06' E 009°05'0 0.1
2018-Jan-17 23:53N 39°06' E 009°05'  
2018-Jan-12 14:59N 39°06' E 009°03'  

Dump ship's entire track history